createdAt,value
2022-08-29T17:17:43.148Z,98659.97
2022-08-29T17:20:13.709Z,98659.25
2022-08-29T17:22:41.243Z,98664.88
2022-08-29T17:25:14.459Z,98661.94
2022-08-29T17:27:55.440Z,98669.16
2022-08-29T17:30:32.097Z,98667.47
2022-08-29T17:32:59.298Z,98675.03
2022-08-29T17:35:27.714Z,98675.03
2022-08-29T17:37:55.233Z,98678.94
2022-08-29T17:40:22.644Z,98679.47
2022-08-29T17:42:50.264Z,98695.19
2022-08-29T17:45:17.489Z,98692.72
2022-08-29T17:47:46.974Z,98689.44
2022-08-29T17:50:14.425Z,98689.19
2022-08-29T17:52:41.844Z,98690.00
2022-08-29T17:55:16.765Z,98699.97
2022-08-29T17:57:43.867Z,98699.22
2022-08-29T18:00:12.660Z,98692.28
2022-08-29T18:02:40.965Z,98691.13
2022-08-29T18:05:13.824Z,98696.78
2022-08-29T18:07:41.417Z,98702.06
2022-08-29T18:10:18.476Z,98705.16
2022-08-29T18:13:00.276Z,98706.56
2022-08-29T18:15:48.256Z,98716.00
2022-08-29T18:18:18.735Z,98717.88
2022-08-29T18:20:45.976Z,98714.94
2022-08-29T18:23:13.017Z,98720.47
2022-08-29T18:25:40.222Z,98720.25
2022-08-29T18:28:08.580Z,98730.84
2022-08-29T18:30:35.935Z,98742.38
2022-08-29T18:33:14.379Z,98741.03
2022-08-29T18:36:34.961Z,98730.00
2022-08-29T18:39:21.691Z,98744.09
2022-08-29T18:45:25.070Z,98741.31
2022-08-29T18:48:29.502Z,98745.19
2022-08-29T18:52:11.053Z,98744.69
2022-08-29T18:58:44.553Z,98755.69
2022-08-29T19:01:14.864Z,98756.75
2022-08-29T19:06:31.738Z,98766.25
2022-08-29T19:09:57.622Z,98761.31
2022-08-29T19:12:26.619Z,98767.44
2022-08-29T19:14:53.807Z,98765.81
2022-08-29T19:17:23.921Z,98786.75
2022-08-29T19:20:13.781Z,98773.84
2022-08-29T19:22:40.997Z,98782.16
2022-08-29T19:25:09.045Z,98774.13
2022-08-29T19:27:45.131Z,98789.09
2022-08-29T19:30:16.768Z,98790.19
2022-08-29T19:32:45.673Z,98783.81
2022-08-29T19:35:13.300Z,98779.72
2022-08-29T19:37:43.093Z,98783.31
2022-08-29T19:40:12.940Z,98787.75
2022-08-29T19:42:45.578Z,98788.59
2022-08-29T19:45:18.651Z,98796.91
2022-08-29T19:47:47.349Z,98791.69
2022-08-29T19:50:16.289Z,98789.75
2022-08-29T19:52:43.841Z,98796.97
2022-08-29T19:55:12.791Z,98799.22
2022-08-29T19:57:42.531Z,98796.44
2022-08-29T20:00:16.045Z,98800.34
2022-08-29T20:02:45.915Z,98799.00
2022-08-29T20:05:21.927Z,98805.88
2022-08-29T20:07:49.889Z,98801.44
2022-08-29T20:10:21.779Z,98800.38
2022-08-29T20:12:52.252Z,98801.50
2022-08-29T20:16:55.341Z,98805.88
